sensor_id;sensor_type;location;lat;lon;timestamp;pressure;altitude;pressure_sealevel;temperature;humidity
39773;BME280;25451;51.960;6.250;2023-07-22T00:00:08;101249.63;;;17.74;59.82
39773;BME280;25451;51.960;6.250;2023-07-22T00:02:38;101239.63;;;17.63;59.79
39773;BME280;25451;51.960;6.250;2023-07-22T00:05:04;101241.28;;;17.64;59.72
39773;BME280;25451;51.960;6.250;2023-07-22T00:07:29;101246.31;;;17.67;59.85
39773;BME280;25451;51.960;6.250;2023-07-22T00:09:55;101254.94;;;17.66;59.90
39773;BME280;25451;51.960;6.250;2023-07-22T00:12:20;101254.69;;;17.62;59.85
39773;BME280;25451;51.960;6.250;2023-07-22T00:14:49;101238.50;;;17.54;59.80
39773;BME280;25451;51.960;6.250;2023-07-22T00:17:15;101248.53;;;17.55;60.09
39773;BME280;25451;51.960;6.250;2023-07-22T00:19:40;101252.16;;;17.56;59.92
39773;BME280;25451;51.960;6.250;2023-07-22T00:22:06;101245.19;;;17.53;60.01
39773;BME280;25451;51.960;6.250;2023-07-22T00:24:31;101236.25;;;17.46;60.18
39773;BME280;25451;51.960;6.250;2023-07-22T00:26:57;101240.69;;;17.47;60.12
39773;BME280;25451;51.960;6.250;2023-07-22T00:29:22;101242.66;;;17.47;60.01
39773;BME280;25451;51.960;6.250;2023-07-22T00:31:47;101233.75;;;17.45;60.11
39773;BME280;25451;51.960;6.250;2023-07-22T00:34:14;101236.22;;;17.41;60.12
39773;BME280;25451;51.960;6.250;2023-07-22T00:36:39;101247.41;;;17.41;60.10
39773;BME280;25451;51.960;6.250;2023-07-22T00:39:05;101233.47;;;17.36;60.11
39773;BME280;25451;51.960;6.250;2023-07-22T00:41:31;101234.00;;;17.38;60.31
39773;BME280;25451;51.960;6.250;2023-07-22T00:43:56;101232.06;;;17.33;60.37
39773;BME280;25451;51.960;6.250;2023-07-22T00:46:21;101232.91;;;17.34;60.32
39773;BME280;25451;51.960;6.250;2023-07-22T00:48:48;101223.97;;;17.32;60.37
39773;BME280;25451;51.960;6.250;2023-07-22T00:51:14;101230.66;;;17.31;60.28
39773;BME280;25451;51.960;6.250;2023-07-22T00:53:39;101227.88;;;17.31;60.30
39773;BME280;25451;51.960;6.250;2023-07-22T00:56:05;101230.94;;;17.29;60.32
39773;BME280;25451;51.960;6.250;2023-07-22T00:58:30;101231.22;;;17.28;60.43
39773;BME280;25451;51.960;6.250;2023-07-22T01:00:56;101237.09;;;17.26;60.34
39773;BME280;25451;51.960;6.250;2023-07-22T01:03:21;101229.81;;;17.25;60.51
39773;BME280;25451;51.960;6.250;2023-07-22T01:05:47;101225.38;;;17.24;60.55
39773;BME280;25451;51.960;6.250;2023-07-22T01:08:13;101222.28;;;17.21;60.62
39773;BME280;25451;51.960;6.250;2023-07-22T01:10:39;101217.28;;;17.18;60.55
39773;BME280;25451;51.960;6.250;2023-07-22T01:13:04;101222.28;;;17.21;60.52
39773;BME280;25451;51.960;6.250;2023-07-22T01:15:30;101205.81;;;17.14;60.59
39773;BME280;25451;51.960;6.250;2023-07-22T01:17:56;101215.34;;;17.18;60.59
39773;BME280;25451;51.960;6.250;2023-07-22T01:20:28;101215.59;;;17.17;60.79
39773;BME280;25451;51.960;6.250;2023-07-22T01:22:54;101211.16;;;17.16;60.66
39773;BME280;25451;51.960;6.250;2023-07-22T01:25:20;101206.41;;;17.11;60.75
39773;BME280;25451;51.960;6.250;2023-07-22T01:27:50;101209.47;;;17.10;60.80
39773;BME280;25451;51.960;6.250;2023-07-22T01:30:16;101204.72;;;17.10;60.81
39773;BME280;25451;51.960;6.250;2023-07-22T01:32:42;101202.78;;;17.06;60.77
39773;BME280;25451;51.960;6.250;2023-07-22T01:35:08;101193.28;;;17.02;60.94
39773;BME280;25451;51.960;6.250;2023-07-22T01:37:34;101195.50;;;17.05;60.87
39773;BME280;25451;51.960;6.250;2023-07-22T01:40:00;101193.53;;;17.00;60.99
39773;BME280;25451;51.960;6.250;2023-07-22T01:42:25;101199.13;;;17.00;61.09
39773;BME280;25451;51.960;6.250;2023-07-22T01:44:51;101206.94;;;16.98;61.26
39773;BME280;25451;51.960;6.250;2023-07-22T01:47:16;101208.63;;;16.99;61.06
39773;BME280;25451;51.960;6.250;2023-07-22T01:49:42;101179.59;;;16.80;61.20
39773;BME280;25451;51.960;6.250;2023-07-22T01:52:08;101203.88;;;16.95;61.25
39773;BME280;25451;51.960;6.250;2023-07-22T01:54:33;101199.97;;;16.96;61.39
39773;BME280;25451;51.960;6.250;2023-07-22T01:56:58;101197.72;;;16.93;61.48
39773;BME280;25451;51.960;6.250;2023-07-22T01:59:24;101187.41;;;16.88;61.48
39773;BME280;25451;51.960;6.250;2023-07-22T02:01:50;101198.59;;;16.93;61.43
39773;BME280;25451;51.960;6.250;2023-07-22T02:04:15;101197.75;;;16.88;61.51
39773;BME280;25451;51.960;6.250;2023-07-22T02:06:41;101194.41;;;16.86;61.49
39773;BME280;25451;51.960;6.250;2023-07-22T02:09:06;101200.25;;;16.89;61.59
39773;BME280;25451;51.960;6.250;2023-07-22T02:11:35;101199.41;;;16.89;61.73
39773;BME280;25451;51.960;6.250;2023-07-22T02:14:00;101194.41;;;16.86;61.68
39773;BME280;25451;51.960;6.250;2023-07-22T02:16:25;101198.84;;;16.87;61.64
39773;BME280;25451;51.960;6.250;2023-07-22T02:18:51;101198.84;;;16.87;61.88
39773;BME280;25451;51.960;6.250;2023-07-22T02:21:16;101199.69;;;16.87;61.81
39773;BME280;25451;51.960;6.250;2023-07-22T02:23:41;101187.13;;;16.85;61.56
39773;BME280;25451;51.960;6.250;2023-07-22T02:26:07;101189.66;;;16.81;61.75
39773;BME280;25451;51.960;6.250;2023-07-22T02:28:33;101190.75;;;16.80;61.73
39773;BME280;25451;51.960;6.250;2023-07-22T02:31:01;101192.16;;;16.83;61.87
39773;BME280;25451;51.960;6.250;2023-07-22T02:33:32;101187.97;;;16.80;61.97
39773;BME280;25451;51.960;6.250;2023-07-22T02:35:57;101186.03;;;16.76;61.92
39773;BME280;25451;51.960;6.250;2023-07-22T02:38:22;101173.19;;;16.75;61.96
39773;BME280;25451;51.960;6.250;2023-07-22T02:40:48;101185.47;;;16.79;61.99
39773;BME280;25451;51.960;6.250;2023-07-22T02:43:13;101190.19;;;16.78;62.12
39773;BME280;25451;51.960;6.250;2023-07-22T02:45:39;101196.03;;;16.77;62.00
39773;BME280;25451;51.960;6.250;2023-07-22T02:48:04;101185.44;;;16.69;61.96
39773;BME280;25451;51.960;6.250;2023-07-22T02:50:30;101180.41;;;16.66;62.05
39773;BME280;25451;51.960;6.250;2023-07-22T02:52:55;101197.72;;;16.73;62.17
39773;BME280;25451;51.960;6.250;2023-07-22T02:55:21;101181.81;;;16.63;62.17
39773;BME280;25451;51.960;6.250;2023-07-22T02:57:48;101188.50;;;16.67;62.31
39773;BME280;25451;51.960;6.250;2023-07-22T03:00:16;101194.91;;;16.68;62.34
39773;BME280;25451;51.960;6.250;2023-07-22T03:02:52;101191.84;;;16.64;62.22
39773;BME280;25451;51.960;6.250;2023-07-22T03:05:19;101192.13;;;16.63;62.40
39773;BME280;25451;51.960;6.250;2023-07-22T03:07:44;101196.00;;;16.62;62.40
39773;BME280;25451;51.960;6.250;2023-07-22T03:10:09;101195.72;;;16.58;62.47
39773;BME280;25451;51.960;6.250;2023-07-22T03:12:35;101195.44;;;16.54;62.45
39773;BME280;25451;51.960;6.250;2023-07-22T03:15:01;101198.25;;;16.54;62.61
39773;BME280;25451;51.960;6.250;2023-07-22T03:17:29;101197.69;;;16.52;62.59
39773;BME280;25451;51.960;6.250;2023-07-22T03:19:55;101199.91;;;16.50;62.51
39773;BME280;25451;51.960;6.250;2023-07-22T03:22:20;101179.78;;;16.43;62.54
39773;BME280;25451;51.960;6.250;2023-07-22T03:24:45;101194.00;;;16.47;62.58
39773;BME280;25451;51.960;6.250;2023-07-22T03:27:11;101193.13;;;16.41;62.61
39773;BME280;25451;51.960;6.250;2023-07-22T03:29:38;101186.72;;;16.36;62.69
39773;BME280;25451;51.960;6.250;2023-07-22T03:32:04;101196.50;;;16.38;62.70
39773;BME280;25451;51.960;6.250;2023-07-22T03:34:30;101190.34;;;16.36;62.67
39773;BME280;25451;51.960;6.250;2023-07-22T03:36:56;101196.22;;;16.35;62.77
39773;BME280;25451;51.960;6.250;2023-07-22T03:39:21;101200.94;;;16.34;62.84
39773;BME280;25451;51.960;6.250;2023-07-22T03:41:47;101193.13;;;16.31;62.84
39773;BME280;25451;51.960;6.250;2023-07-22T03:44:12;101198.13;;;16.29;62.96
39773;BME280;25451;51.960;6.250;2023-07-22T03:46:38;101198.69;;;16.26;62.77
39773;BME280;25451;51.960;6.250;2023-07-22T03:49:04;101195.91;;;16.26;62.83
39773;BME280;25451;51.960;6.250;2023-07-22T03:51:29;101198.13;;;16.24;63.00
39773;BME280;25451;51.960;6.250;2023-07-22T03:53:54;101205.06;;;16.22;62.93
39773;BME280;25451;51.960;6.250;2023-07-22T03:56:20;101194.44;;;16.19;62.97
39773;BME280;25451;51.960;6.250;2023-07-22T03:58:45;101194.16;;;16.15;62.91
39773;BME280;25451;51.960;6.250;2023-07-22T04:01:12;101205.03;;;16.17;62.92
39773;BME280;25451;51.960;6.250;2023-07-22T04:03:37;101198.91;;;16.15;63.13
39773;BME280;25451;51.960;6.250;2023-07-22T04:06:03;101198.34;;;16.13;62.99
39773;BME280;25451;51.960;6.250;2023-07-22T04:08:28;101194.41;;;16.09;63.02
39773;BME280;25451;51.960;6.250;2023-07-22T04:10:54;101201.13;;;16.13;63.12
39773;BME280;25451;51.960;6.250;2023-07-22T04:13:20;101201.41;;;16.11;63.03
39773;BME280;25451;51.960;6.250;2023-07-22T04:15:47;101185.78;;;16.05;63.13
39773;BME280;25451;51.960;6.250;2023-07-22T04:18:13;101200.56;;;16.11;63.22
39773;BME280;25451;51.960;6.250;2023-07-22T04:20:39;101196.63;;;16.07;63.18
39773;BME280;25451;51.960;6.250;2023-07-22T04:23:05;101194.16;;;16.10;63.29
39773;BME280;25451;51.960;6.250;2023-07-22T04:25:30;101191.38;;;16.10;63.36
39773;BME280;25451;51.960;6.250;2023-07-22T04:27:55;101189.69;;;16.09;63.33
39773;BME280;25451;51.960;6.250;2023-07-22T04:30:21;101189.13;;;16.07;63.28
39773;BME280;25451;51.960;6.250;2023-07-22T04:32:49;101186.91;;;16.09;63.35
39773;BME280;25451;51.960;6.250;2023-07-22T04:35:19;101190.53;;;16.10;63.35
39773;BME280;25451;51.960;6.250;2023-07-22T04:37:44;101194.69;;;16.07;63.29
39773;BME280;25451;51.960;6.250;2023-07-22T04:40:13;101201.41;;;16.11;63.37
39773;BME280;25451;51.960;6.250;2023-07-22T04:42:43;101196.38;;;16.08;63.45
39773;BME280;25451;51.960;6.250;2023-07-22T04:45:09;101191.34;;;16.05;63.53
39773;BME280;25451;51.960;6.250;2023-07-22T04:47:35;101198.59;;;16.11;63.55
39773;BME280;25451;51.960;6.250;2023-07-22T04:50:01;101203.91;;;16.13;63.90
39773;BME280;25451;51.960;6.250;2023-07-22T04:52:26;101194.13;;;16.05;63.63
39773;BME280;25451;51.960;6.250;2023-07-22T04:54:52;101200.03;;;16.14;63.81
39773;BME280;25451;51.960;6.250;2023-07-22T04:57:18;101204.75;;;16.13;63.84
39773;BME280;25451;51.960;6.250;2023-07-22T04:59:44;101214.22;;;16.17;63.88
39773;BME280;25451;51.960;6.250;2023-07-22T05:02:09;101203.66;;;16.19;63.99
39773;BME280;25451;51.960;6.250;2023-07-22T05:04:34;101200.88;;;16.19;63.86
39773;BME280;25451;51.960;6.250;2023-07-22T05:07:00;101203.41;;;16.26;63.92
39773;BME280;25451;51.960;6.250;2023-07-22T05:09:25;101208.72;;;16.32;63.90
39773;BME280;25451;51.960;6.250;2023-07-22T05:11:50;101211.53;;;16.37;63.90
39773;BME280;25451;51.960;6.250;2023-07-22T05:14:16;101203.19;;;16.42;63.85
39773;BME280;25451;51.960;6.250;2023-07-22T05:16:41;101203.19;;;16.47;63.82
39773;BME280;25451;51.960;6.250;2023-07-22T05:19:06;101214.97;;;16.54;63.75
39773;BME280;25451;51.960;6.250;2023-07-22T05:21:33;101212.44;;;16.58;63.88
39773;BME280;25451;51.960;6.250;2023-07-22T05:23:58;101221.13;;;16.67;63.83
39773;BME280;25451;51.960;6.250;2023-07-22T05:26:24;101216.66;;;16.71;63.83
39773;BME280;25451;51.960;6.250;2023-07-22T05:28:49;101217.22;;;16.73;64.05
39773;BME280;25451;51.960;6.250;2023-07-22T05:31:16;101227.28;;;16.79;64.05
39773;BME280;25451;51.960;6.250;2023-07-22T05:33:41;101215.59;;;16.82;64.04
39773;BME280;25451;51.960;6.250;2023-07-22T05:36:06;101212.50;;;16.83;64.19
39773;BME280;25451;51.960;6.250;2023-07-22T05:38:32;101211.13;;;16.86;64.12
39773;BME280;25451;51.960;6.250;2023-07-22T05:40:57;101212.53;;;16.93;64.04
39773;BME280;25451;51.960;6.250;2023-07-22T05:43:23;101225.06;;;17.01;64.34
39773;BME280;25451;51.960;6.250;2023-07-22T05:45:48;101218.94;;;17.04;64.24
39773;BME280;25451;51.960;6.250;2023-07-22T05:48:14;101219.22;;;17.07;64.23
39773;BME280;25451;51.960;6.250;2023-07-22T05:50:39;101216.72;;;17.11;64.30
39773;BME280;25451;51.960;6.250;2023-07-22T05:53:04;101219.22;;;17.17;64.21
39773;BME280;25451;51.960;6.250;2023-07-22T05:55:29;101208.63;;;17.19;64.31
39773;BME280;25451;51.960;6.250;2023-07-22T05:57:55;101214.19;;;17.29;64.14
39773;BME280;25451;51.960;6.250;2023-07-22T06:00:21;101208.88;;;17.33;63.87
39773;BME280;25451;51.960;6.250;2023-07-22T06:02:46;101210.84;;;17.37;63.95
39773;BME280;25451;51.960;6.250;2023-07-22T06:05:12;101206.09;;;17.48;63.96
39773;BME280;25451;51.960;6.250;2023-07-22T06:07:38;101210.59;;;17.54;63.69
39773;BME280;25451;51.960;6.250;2023-07-22T06:10:04;101210.59;;;17.54;63.94
39773;BME280;25451;51.960;6.250;2023-07-22T06:12:29;101217.25;;;17.68;63.82
39773;BME280;25451;51.960;6.250;2023-07-22T06:14:55;101204.69;;;17.71;63.77
39773;BME280;25451;51.960;6.250;2023-07-22T06:17:20;101209.41;;;17.80;63.85
39773;BME280;25451;51.960;6.250;2023-07-22T06:19:46;101210.78;;;17.88;63.73
39773;BME280;25451;51.960;6.250;2023-07-22T06:22:11;101203.78;;;17.90;63.82
39773;BME280;25451;51.960;6.250;2023-07-22T06:24:36;101208.25;;;17.96;63.60
39773;BME280;25451;51.960;6.250;2023-07-22T06:27:02;101207.41;;;18.01;63.48
39773;BME280;25451;51.960;6.250;2023-07-22T06:29:27;101203.75;;;18.00;63.55
39773;BME280;25451;51.960;6.250;2023-07-22T06:31:52;101210.44;;;18.09;63.59
39773;BME280;25451;51.960;6.250;2023-07-22T06:34:18;101208.19;;;18.11;63.55
39773;BME280;25451;51.960;6.250;2023-07-22T06:36:43;101203.69;;;18.20;63.50
39773;BME280;25451;51.960;6.250;2023-07-22T06:39:08;101192.50;;;18.26;63.24
39773;BME280;25451;51.960;6.250;2023-07-22T06:41:34;101200.81;;;18.36;63.38
39773;BME280;25451;51.960;6.250;2023-07-22T06:43:59;101196.88;;;18.42;63.31
39773;BME280;25451;51.960;6.250;2023-07-22T06:46:25;101210.84;;;18.52;63.20
39773;BME280;25451;51.960;6.250;2023-07-22T06:48:50;101201.00;;;18.59;63.15
39773;BME280;25451;51.960;6.250;2023-07-22T06:51:15;101209.91;;;18.66;63.41
39773;BME280;25451;51.960;6.250;2023-07-22T06:53:41;101208.47;;;18.74;63.07
39773;BME280;25451;51.960;6.250;2023-07-22T06:56:06;101203.97;;;18.78;63.09
39773;BME280;25451;51.960;6.250;2023-07-22T06:58:31;101208.38;;;18.84;62.99
39773;BME280;25451;51.960;6.250;2023-07-22T07:00:57;101207.78;;;18.92;62.91
39773;BME280;25451;51.960;6.250;2023-07-22T07:03:22;101195.97;;;19.00;63.12
39773;BME280;25451;51.960;6.250;2023-07-22T07:05:54;101204.28;;;19.10;63.02
39773;BME280;25451;51.960;6.250;2023-07-22T07:08:21;101202.00;;;19.17;62.89
39773;BME280;25451;51.960;6.250;2023-07-22T07:10:48;101204.16;;;19.25;62.71
39773;BME280;25451;51.960;6.250;2023-07-22T07:13:13;101206.91;;;19.35;62.77
39773;BME280;25451;51.960;6.250;2023-07-22T07:15:39;101188.16;;;19.36;62.59
39773;BME280;25451;51.960;6.250;2023-07-22T07:18:05;101211.19;;;19.56;62.51
39773;BME280;25451;51.960;6.250;2023-07-22T07:20:30;101211.09;;;19.66;62.48
39773;BME280;25451;51.960;6.250;2023-07-22T07:22:55;101207.56;;;19.79;62.27
39773;BME280;25451;51.960;6.250;2023-07-22T07:25:21;101213.59;;;19.92;62.32
39773;BME280;25451;51.960;6.250;2023-07-22T07:27:46;101216.81;;;20.04;62.14
39773;BME280;25451;51.960;6.250;2023-07-22T07:30:12;101210.28;;;20.13;61.96
39773;BME280;25451;51.960;6.250;2023-07-22T07:32:37;101218.59;;;20.23;61.92
39773;BME280;25451;51.960;6.250;2023-07-22T07:35:03;101213.22;;;20.27;61.77
39773;BME280;25451;51.960;6.250;2023-07-22T07:37:29;101204.97;;;20.35;61.82
39773;BME280;25451;51.960;6.250;2023-07-22T07:39:54;101197.31;;;20.41;61.66
39773;BME280;25451;51.960;6.250;2023-07-22T07:42:24;101190.28;;;20.43;61.71
39773;BME280;25451;51.960;6.250;2023-07-22T07:44:49;101199.69;;;20.52;61.68
39773;BME280;25451;51.960;6.250;2023-07-22T07:47:15;101199.63;;;20.57;61.63
39773;BME280;25451;51.960;6.250;2023-07-22T07:49:40;101188.72;;;20.56;61.58
39773;BME280;25451;51.960;6.250;2023-07-22T07:52:05;101192.22;;;20.67;61.47
39773;BME280;25451;51.960;6.250;2023-07-22T07:54:31;101202.06;;;20.83;61.44
39773;BME280;25451;51.960;6.250;2023-07-22T07:56:56;101186.88;;;20.84;61.11
39773;BME280;25451;51.960;6.250;2023-07-22T07:59:21;101197.81;;;21.04;61.18
39773;BME280;25451;51.960;6.250;2023-07-22T08:01:47;101196.53;;;21.15;60.93
39773;BME280;25451;51.960;6.250;2023-07-22T08:04:12;101199.47;;;21.23;60.73
39773;BME280;25451;51.960;6.250;2023-07-22T08:06:38;101192.31;;;21.31;60.71
39773;BME280;25451;51.960;6.250;2023-07-22T08:09:04;101187.66;;;21.40;60.63
39773;BME280;25451;51.960;6.250;2023-07-22T08:11:31;101189.78;;;21.48;60.40
39773;BME280;25451;51.960;6.250;2023-07-22T08:13:56;101192.59;;;21.62;60.27
39773;BME280;25451;51.960;6.250;2023-07-22T08:16:21;101189.91;;;21.70;60.07
39773;BME280;25451;51.960;6.250;2023-07-22T08:18:47;101197.22;;;21.85;60.03
39773;BME280;25451;51.960;6.250;2023-07-22T08:21:13;101201.00;;;21.94;59.87
39773;BME280;25451;51.960;6.250;2023-07-22T08:23:38;101197.47;;;22.02;59.56
39773;BME280;25451;51.960;6.250;2023-07-22T08:26:04;101201.22;;;22.11;59.35
39773;BME280;25451;51.960;6.250;2023-07-22T08:28:33;101198.94;;;22.13;59.13
39773;BME280;25451;51.960;6.250;2023-07-22T08:30:58;101203.91;;;22.16;59.18
39773;BME280;25451;51.960;6.250;2023-07-22T08:33:25;101207.69;;;22.25;58.99
39773;BME280;25451;51.960;6.250;2023-07-22T08:35:52;101204.53;;;22.26;58.64
39773;BME280;25451;51.960;6.250;2023-07-22T08:38:17;101197.56;;;22.24;58.50
39773;BME280;25451;51.960;6.250;2023-07-22T08:40:42;101200.91;;;22.26;58.76
39773;BME280;25451;51.960;6.250;2023-07-22T08:43:10;101203.91;;;22.29;58.33
39773;BME280;25451;51.960;6.250;2023-07-22T08:45:37;101190.50;;;22.26;58.37
39773;BME280;25451;51.960;6.250;2023-07-22T08:48:05;101203.28;;;22.33;58.28
39773;BME280;25451;51.960;6.250;2023-07-22T08:50:37;101198.50;;;22.33;58.16
39773;BME280;25451;51.960;6.250;2023-07-22T08:53:06;101189.75;;;22.35;57.95
39773;BME280;25451;51.960;6.250;2023-07-22T08:55:33;101192.47;;;22.40;58.04
39773;BME280;25451;51.960;6.250;2023-07-22T08:57:59;101186.00;;;22.39;58.00
39773;BME280;25451;51.960;6.250;2023-07-22T09:00:25;101197.63;;;22.46;57.67
39773;BME280;25451;51.960;6.250;2023-07-22T09:02:51;101187.22;;;22.47;57.75
39773;BME280;25451;51.960;6.250;2023-07-22T09:05:18;101196.69;;;22.51;57.75
39773;BME280;25451;51.960;6.250;2023-07-22T09:07:43;101187.94;;;22.52;57.68
39773;BME280;25451;51.960;6.250;2023-07-22T09:10:11;101192.09;;;22.55;57.50
39773;BME280;25451;51.960;6.250;2023-07-22T09:12:36;101202.47;;;22.59;57.28
39773;BME280;25451;51.960;6.250;2023-07-22T09:15:09;101205.13;;;22.64;57.28
39773;BME280;25451;51.960;6.250;2023-07-22T09:17:36;101203.88;;;22.70;57.10
39773;BME280;25451;51.960;6.250;2023-07-22T09:20:02;101191.81;;;22.70;56.86
39773;BME280;25451;51.960;6.250;2023-07-22T09:22:28;101190.84;;;22.74;56.78
39773;BME280;25451;51.960;6.250;2023-07-22T09:25:12;101204.19;;;22.82;56.84
39773;BME280;25451;51.960;6.250;2023-07-22T09:27:38;101203.66;;;22.80;56.63
39773;BME280;25451;51.960;6.250;2023-07-22T09:30:20;101193.97;;;22.73;56.38
39773;BME280;25451;51.960;6.250;2023-07-22T09:32:45;101196.34;;;22.79;56.32
39773;BME280;25451;51.960;6.250;2023-07-22T09:35:11;101203.84;;;22.84;56.13
39773;BME280;25451;51.960;6.250;2023-07-22T09:37:37;101204.03;;;22.87;56.36
39773;BME280;25451;51.960;6.250;2023-07-22T09:40:13;101200.09;;;22.88;56.39
39773;BME280;25451;51.960;6.250;2023-07-22T09:42:39;101189.97;;;22.87;56.14
39773;BME280;25451;51.960;6.250;2023-07-22T09:45:05;101197.16;;;22.93;56.16
39773;BME280;25451;51.960;6.250;2023-07-22T09:47:39;101188.88;;;22.97;56.21
39773;BME280;25451;51.960;6.250;2023-07-22T09:50:05;101183.97;;;23.02;55.82
39773;BME280;25451;51.960;6.250;2023-07-22T09:52:31;101185.63;;;23.03;55.70
39773;BME280;25451;51.960;6.250;2023-07-22T09:54:58;101182.72;;;23.08;55.66
39773;BME280;25451;51.960;6.250;2023-07-22T09:57:24;101186.03;;;23.11;55.68
39773;BME280;25451;51.960;6.250;2023-07-22T09:59:51;101179.06;;;23.08;55.70
39773;BME280;25451;51.960;6.250;2023-07-22T10:02:18;101183.00;;;23.07;55.65
39773;BME280;25451;51.960;6.250;2023-07-22T10:04:45;101188.84;;;23.11;55.38
39773;BME280;25451;51.960;6.250;2023-07-22T10:07:12;101182.06;;;23.12;55.58
39773;BME280;25451;51.960;6.250;2023-07-22T10:09:39;101178.72;;;23.09;55.49
39773;BME280;25451;51.960;6.250;2023-07-22T10:12:05;101190.38;;;23.17;55.57
39773;BME280;25451;51.960;6.250;2023-07-22T10:14:31;101187.56;;;23.17;55.51
39773;BME280;25451;51.960;6.250;2023-07-22T10:16:57;101179.75;;;23.14;55.52
39773;BME280;25451;51.960;6.250;2023-07-22T10:19:24;101161.47;;;23.02;55.31
39773;BME280;25451;51.960;6.250;2023-07-22T10:21:51;101185.78;;;23.21;55.04
39773;BME280;25451;51.960;6.250;2023-07-22T10:24:17;101192.09;;;23.26;55.02
39773;BME280;25451;51.960;6.250;2023-07-22T10:26:43;101180.22;;;23.29;55.01
39773;BME280;25451;51.960;6.250;2023-07-22T10:29:11;101186.56;;;23.35;54.89
39773;BME280;25451;51.960;6.250;2023-07-22T10:31:37;101186.75;;;23.38;54.87
39773;BME280;25451;51.960;6.250;2023-07-22T10:34:03;101184.78;;;23.39;54.55
39773;BME280;25451;51.960;6.250;2023-07-22T10:36:29;101185.47;;;23.44;54.76
39773;BME280;25451;51.960;6.250;2023-07-22T10:38:57;101187.31;;;23.49;54.66
39773;BME280;25451;51.960;6.250;2023-07-22T10:41:23;101189.81;;;23.50;54.33
39773;BME280;25451;51.960;6.250;2023-07-22T10:43:56;101192.00;;;23.53;54.22
39773;BME280;25451;51.960;6.250;2023-07-22T10:46:38;101197.31;;;23.55;53.83
39773;BME280;25451;51.960;6.250;2023-07-22T10:49:10;101195.00;;;23.57;54.05
39773;BME280;25451;51.960;6.250;2023-07-22T10:51:36;101191.84;;;23.58;53.86
39773;BME280;25451;51.960;6.250;2023-07-22T10:54:02;101194.34;;;23.60;53.62
39773;BME280;25451;51.960;6.250;2023-07-22T10:56:28;101181.28;;;23.64;53.82
39773;BME280;25451;51.960;6.250;2023-07-22T11:04:13;101182.16;;;23.73;53.54
39773;BME280;25451;51.960;6.250;2023-07-22T11:12:05;101166.25;;;23.77;53.34
39773;BME280;25451;51.960;6.250;2023-07-22T11:14:37;101169.59;;;23.79;53.10
39773;BME280;25451;51.960;6.250;2023-07-22T11:17:04;101159.47;;;23.78;52.57
39773;BME280;25451;51.960;6.250;2023-07-22T11:19:30;101158.69;;;23.86;52.47
39773;BME280;25451;51.960;6.250;2023-07-22T11:21:56;101158.53;;;23.91;52.59
39773;BME280;25451;51.960;6.250;2023-07-22T11:24:23;101136.78;;;23.92;52.51
39773;BME280;25451;51.960;6.250;2023-07-22T11:26:49;101154.25;;;24.02;52.28
39773;BME280;25451;51.960;6.250;2023-07-22T11:29:15;101142.03;;;24.07;51.96
39773;BME280;25451;51.960;6.250;2023-07-22T11:31:43;101137.56;;;24.14;51.82
39773;BME280;25451;51.960;6.250;2023-07-22T11:36:36;101122.97;;;24.29;51.49
39773;BME280;25451;51.960;6.250;2023-07-22T11:39:06;101123.34;;;24.36;51.70
39773;BME280;25451;51.960;6.250;2023-07-22T11:41:32;101125.69;;;24.43;51.46
39773;BME280;25451;51.960;6.250;2023-07-22T11:44:02;101134.00;;;24.56;51.18
39773;BME280;25451;51.960;6.250;2023-07-22T11:46:28;101125.03;;;24.63;51.07
39773;BME280;25451;51.960;6.250;2023-07-22T11:48:55;101128.34;;;24.65;50.76
39773;BME280;25451;51.960;6.250;2023-07-22T11:51:22;101116.91;;;24.61;50.58
39773;BME280;25451;51.960;6.250;2023-07-22T11:53:49;101122.53;;;24.70;50.42
39773;BME280;25451;51.960;6.250;2023-07-22T11:56:28;101122.41;;;24.75;50.55
39773;BME280;25451;51.960;6.250;2023-07-22T11:58:57;101106.44;;;24.70;50.03
39773;BME280;25451;51.960;6.250;2023-07-22T12:01:23;101130.88;;;24.84;50.03
39773;BME280;25451;51.960;6.250;2023-07-22T12:03:49;101122.56;;;24.87;49.67
39773;BME280;25451;51.960;6.250;2023-07-22T12:06:15;101115.44;;;24.90;49.84
39773;BME280;25451;51.960;6.250;2023-07-22T12:08:48;101111.28;;;24.87;49.85
39773;BME280;25451;51.960;6.250;2023-07-22T12:11:22;101128.22;;;24.96;49.79
39773;BME280;25451;51.960;6.250;2023-07-22T12:16:29;101121.56;;;25.00;49.59
39773;BME280;25451;51.960;6.250;2023-07-22T12:18:55;101121.22;;;25.02;49.75
39773;BME280;25451;51.960;6.250;2023-07-22T12:21:21;101117.72;;;25.05;49.76
39773;BME280;25451;51.960;6.250;2023-07-22T12:23:46;101109.94;;;25.02;49.18
39773;BME280;25451;51.960;6.250;2023-07-22T12:26:12;101104.78;;;25.04;49.47
39773;BME280;25451;51.960;6.250;2023-07-22T12:28:37;101098.13;;;25.00;49.32
39773;BME280;25451;51.960;6.250;2023-07-22T12:31:03;101104.09;;;25.07;49.29
39773;BME280;25451;51.960;6.250;2023-07-22T12:33:28;101114.59;;;25.06;49.53
39773;BME280;25451;51.960;6.250;2023-07-22T12:35:55;101106.13;;;25.06;49.27
39773;BME280;25451;51.960;6.250;2023-07-22T12:38:20;101088.47;;;25.09;49.17
39773;BME280;25451;51.960;6.250;2023-07-22T12:40:46;101092.78;;;25.15;49.26
39773;BME280;25451;51.960;6.250;2023-07-22T12:43:11;101088.13;;;25.19;48.91
39773;BME280;25451;51.960;6.250;2023-07-22T12:45:37;101091.94;;;25.23;48.95
39773;BME280;25451;51.960;6.250;2023-07-22T12:48:02;101086.91;;;25.29;48.80
39773;BME280;25451;51.960;6.250;2023-07-22T12:50:30;101094.75;;;25.32;48.68
39773;BME280;25451;51.960;6.250;2023-07-22T12:52:57;101096.56;;;25.36;48.55
39773;BME280;25451;51.960;6.250;2023-07-22T12:55:22;101116.00;;;25.38;48.52
39773;BME280;25451;51.960;6.250;2023-07-22T12:57:48;101090.22;;;25.39;48.31
39773;BME280;25451;51.960;6.250;2023-07-22T13:00:13;101097.56;;;25.40;48.45